Thank you for stopping by at Cubana Virtual. Ready to take your virtual flying to the next level? Become a pilot for Cubana Virtual Join Cubana Virtual Now!

Locations Worldwide

Reports come from airports, military bases or permanent weather observation stations and are generated once an hour or half-hour, unless conditions change significantly.

Airport Search

Current Location Weather

TBPB 131000Z 12013KT 9999 SCT018 26/20 Q1012 NOSIG
TBPB - Grantley Adams International Airport
Observed
Apr-13 @ 10:00 UTC
Wind
120º at 13 KTS
Visibility
10,000+ meters
Flight Rules
VFR
Cloud Levels
Scattered at 1800' AGL
Temperature
26ºC / 79ºF
Dewpoint
20ºC / 68ºF
Humidity
70%
Altimeter
29.88" Hg
Pressure
1011.92 hPa

Copyright © 2021, CMS by phpVMS- Your IP address is: 100.26.179.251

✈blueIce v2.0.1 made with ❤ by 209Studios. All Rights Reserved.